Time;durP1;ratioP1;P1;durP2;ratioP2;P2;SDS_P1;SDS_P2;PMS_P1;PMS_P2;Temp;Humidity;BMP_temperature;BMP_pressure;BME280_temperature;BME280_humidity;BME280_pressure;Samples;Min_cycle;Max_cycle;Signal;HPM_P1;HPM_P2
2021/12/25 00:01:06;;;;;;;22.80;17.92;;;7.80;99.90;;;;;;5067177;28;20044;-57
2021/12/25 00:03:33;;;;;;;25.35;18.38;;;7.70;99.90;;;;;;5067416;28;20028;-57
2021/12/25 00:05:58;;;;;;;26.65;18.65;;;7.60;99.90;;;;;;5069049;28;20056;-57
2021/12/25 00:08:26;;;;;;;25.98;18.60;;;7.60;99.90;;;;;;5070359;28;20556;-56
2021/12/25 00:10:54;;;;;;;24.40;19.25;;;7.70;99.90;;;;;;5067580;28;20024;-57
2021/12/25 00:13:20;;;;;;;26.70;19.85;;;7.70;99.90;;;;;;5067478;28;20043;-56
2021/12/25 00:15:50;;;;;;;25.20;18.48;;;7.60;99.90;;;;;;5067299;28;20024;-57
2021/12/25 00:18:17;;;;;;;27.42;19.20;;;7.70;99.90;;;;;;5067606;28;20033;-55
2021/12/25 00:20:43;;;;;;;24.83;18.67;;;7.70;99.90;;;;;;5069976;28;20024;-57
2021/12/25 00:23:10;;;;;;;28.10;19.95;;;7.70;99.90;;;;;;5068959;28;20020;-57
2021/12/25 00:25:42;;;;;;;27.40;20.10;;;7.60;99.90;;;;;;5066974;28;20025;-57
2021/12/25 00:30:59;;;;;;;27.77;19.38;;;7.60;99.90;;;;;;5071337;28;20047;-57
2021/12/25 00:36:06;;;;;;;25.88;18.70;;;7.60;99.90;;;;;;5057394;28;20103;-56
2021/12/25 00:38:32;;;;;;;27.63;20.08;;;7.50;99.90;;;;;;5071238;28;20613;-57
2021/12/25 00:40:58;;;;;;;28.08;20.05;;;7.60;99.90;;;;;;5070728;28;20039;-57
2021/12/25 00:43:24;;;;;;;24.00;18.80;;;7.50;99.90;;;;;;5070965;28;20044;-55
2021/12/25 00:45:50;;;;;;;30.98;20.15;;;7.60;99.90;;;;;;5070903;28;20195;-56
2021/12/25 00:48:16;;;;;;;25.10;18.33;;;7.50;99.90;;;;;;5071235;28;20029;-57
2021/12/25 00:50:41;;;;;;;27.55;20.02;;;7.60;99.90;;;;;;5074095;28;20039;-55
2021/12/25 00:53:07;;;;;;;25.75;18.80;;;7.60;99.90;;;;;;5070852;28;20380;-55
2021/12/25 00:55:33;;;;;;;29.35;19.88;;;7.60;99.90;;;;;;5070733;28;20043;-57
2021/12/25 00:57:58;;;;;;;26.42;18.73;;;7.50;99.90;;;;;;5070808;28;20043;-57
2021/12/25 01:00:24;;;;;;;28.95;19.85;;;7.60;99.90;;;;;;5071114;28;20444;-56
2021/12/25 01:02:50;;;;;;;28.10;20.27;;;7.40;99.90;;;;;;5073418;28;20044;-56
2021/12/25 01:05:17;;;;;;;27.30;19.80;;;7.40;99.90;;;;;;5072111;28;20082;-57
2021/12/25 01:07:43;;;;;;;25.23;19.17;;;7.40;99.90;;;;;;5071884;28;20072;-57
2021/12/25 01:10:14;;;;;;;28.65;20.23;;;7.50;99.90;;;;;;5070448;28;20020;-57
2021/12/25 01:12:56;;;;;;;29.10;21.42;;;7.40;99.90;;;;;;5070460;28;20115;-56
2021/12/25 01:15:30;;;;;;;32.55;21.55;;;7.40;99.90;;;;;;5071820;28;20066;-56
2021/12/25 01:26:03;;;;;;;35.72;22.10;;;7.30;99.90;;;;;;5070419;28;20029;-56
2021/12/25 01:31:17;;;;;;;29.33;21.60;;;7.30;99.90;;;;;;5070211;28;20123;-57
2021/12/25 01:36:39;;;;;;;32.42;22.13;;;7.40;99.90;;;;;;5069228;28;20093;-57
2021/12/25 01:39:07;;;;;;;27.00;19.63;;;7.30;99.90;;;;;;5069862;28;25360;-57
2021/12/25 01:49:27;;;;;;;33.22;24.33;;;7.20;99.90;;;;;;5069413;28;19915;-57
2021/12/25 01:51:52;;;;;;;36.42;25.20;;;7.20;99.90;;;;;;5068682;28;20028;-57
2021/12/25 01:54:18;;;;;;;34.85;25.33;;;7.20;99.90;;;;;;5070055;28;20028;-58
2021/12/25 01:56:44;;;;;;;33.17;22.50;;;7.20;99.90;;;;;;5071273;28;20067;-57
2021/12/25 01:59:10;;;;;;;31.40;22.08;;;7.30;99.90;;;;;;5069003;28;20078;-57
2021/12/25 02:01:35;;;;;;;33.10;22.00;;;7.30;99.90;;;;;;5068271;28;20052;-57
2021/12/25 02:04:01;;;;;;;29.98;22.55;;;7.30;99.90;;;;;;5068651;28;20031;-56
2021/12/25 02:06:27;;;;;;;29.67;22.58;;;7.30;99.90;;;;;;5069081;28;20033;-56
2021/12/25 02:08:53;;;;;;;31.38;21.75;;;7.30;99.90;;;;;;5070356;28;20019;-57
2021/12/25 02:11:18;;;;;;;28.42;19.88;;;7.30;99.90;;;;;;5070580;28;20020;-57
2021/12/25 02:13:46;;;;;;;30.88;20.88;;;7.30;99.90;;;;;;5068623;28;20032;-56
2021/12/25 02:16:15;;;;;;;31.33;20.48;;;7.30;99.90;;;;;;5068140;28;20028;-57
2021/12/25 02:21:33;;;;;;;32.03;21.88;;;7.20;99.90;;;;;;5068453;28;20461;-56
2021/12/25 02:23:59;;;;;;;;;;;7.20;99.90;;;;;;5070152;28;20116;-55
2021/12/25 02:26:26;;;;;;;30.13;20.40;;;7.10;99.90;;;;;;5072276;28;20001;-56
2021/12/25 02:28:53;;;;;;;28.98;20.95;;;7.20;99.90;;;;;;5068586;28;20086;-57
2021/12/25 02:31:19;;;;;;;32.13;22.00;;;7.20;99.90;;;;;;5067985;28;20056;-56
2021/12/25 02:33:46;;;;;;;38.60;28.55;;;7.10;99.90;;;;;;5021660;28;1383527;-55
2021/12/25 02:36:13;;;;;;;32.08;23.85;;;7.10;99.90;;;;;;5068918;28;20033;-56
2021/12/25 02:38:40;;;;;;;30.40;20.38;;;7.10;99.90;;;;;;5072293;28;20013;-55
2021/12/25 02:41:07;;;;;;;30.60;20.52;;;7.20;99.90;;;;;;5069918;28;20519;-56
2021/12/25 02:43:33;;;;;;;30.52;21.52;;;7.20;99.90;;;;;;5068921;28;20016;-56
2021/12/25 02:46:02;;;;;;;27.50;19.40;;;7.20;99.90;;;;;;5068898;28;20564;-56
2021/12/25 02:48:28;;;;;;;30.48;21.08;;;7.20;99.90;;;;;;5069119;28;20031;-54
2021/12/25 02:50:54;;;;;;;26.52;19.70;;;7.20;99.90;;;;;;5070072;28;20060;-55
2021/12/25 02:53:20;;;;;;;28.73;18.98;;;7.30;99.90;;;;;;5070616;28;20024;-56
2021/12/25 02:55:47;;;;;;;30.80;20.55;;;7.30;99.90;;;;;;5068519;28;20102;-56
2021/12/25 02:58:14;;;;;;;28.65;19.38;;;7.30;99.90;;;;;;5069006;28;20108;-56
2021/12/25 03:00:42;;;;;;;27.73;19.73;;;7.40;99.90;;;;;;5068398;28;20081;-56
2021/12/25 03:03:08;;;;;;;27.45;19.42;;;7.40;99.90;;;;;;5054304;28;20119;-57
2021/12/25 03:05:35;;;;;;;26.20;19.05;;;7.50;99.90;;;;;;5072797;28;20116;-56
2021/12/25 03:08:01;;;;;;;27.25;18.10;;;7.50;99.90;;;;;;5068255;28;20028;-55
2021/12/25 03:10:27;;;;;;;26.75;18.98;;;7.50;99.90;;;;;;5068389;28;20029;-56
2021/12/25 03:13:05;;;;;;;26.00;18.40;;;7.60;99.90;;;;;;5069995;28;20074;-56
2021/12/25 03:15:45;;;;;;;22.70;17.98;;;7.60;99.90;;;;;;5067948;28;20395;-57
2021/12/25 03:18:18;;;;;;;22.20;17.65;;;7.80;99.90;;;;;;5052776;28;20036;-57
2021/12/25 03:20:46;;;;;;;24.75;17.48;;;7.80;99.90;;;;;;5070369;28;20063;-57
2021/12/25 03:23:13;;;;;;;23.88;17.80;;;7.90;99.90;;;;;;5069751;28;20094;-55
2021/12/25 03:25:40;;;;;;;22.58;16.80;;;7.90;99.90;;;;;;5068387;28;20043;-56
2021/12/25 03:28:06;;;;;;;22.67;16.33;;;8.00;99.90;;;;;;5068007;28;20111;-56
2021/12/25 03:30:36;;;;;;;22.50;16.77;;;8.00;99.90;;;;;;5069574;28;20107;-57
2021/12/25 03:33:05;;;;;;;22.65;15.93;;;8.10;99.90;;;;;;5068526;28;20051;-56
2021/12/25 03:35:30;;;;;;;20.92;15.82;;;8.10;99.90;;;;;;5071371;28;20028;-56
2021/12/25 03:37:56;;;;;;;21.60;15.77;;;8.10;99.90;;;;;;5068121;28;20028;-57
2021/12/25 03:40:22;;;;;;;20.75;15.60;;;8.10;99.90;;;;;;5067801;28;20023;-56
2021/12/25 03:42:47;;;;;;;19.17;15.00;;;8.20;99.90;;;;;;5069035;28;20036;-55
2021/12/25 03:45:13;;;;;;;20.55;15.88;;;8.10;99.90;;;;;;5067653;28;20021;-55
2021/12/25 03:47:40;;;;;;;21.52;16.15;;;8.10;99.90;;;;;;5071181;28;20028;-56
2021/12/25 03:58:20;;;;;;;22.65;15.95;;;8.10;99.90;;;;;;5028557;28;20084;-57
2021/12/25 04:00:48;;;;;;;19.48;15.57;;;8.20;99.90;;;;;;5027957;28;20161;-57
2021/12/25 04:03:38;;;;;;;22.00;15.27;;;8.20;99.90;;;;;;5027947;28;20063;-56
2021/12/25 04:06:08;;;;;;;20.05;15.35;;;8.30;99.90;;;;;;5028396;28;20091;-55
2021/12/25 04:08:40;;;;;;;18.88;14.30;;;8.20;99.90;;;;;;5025221;28;20589;-57
2021/12/25 04:11:12;;;;;;;19.35;14.20;;;8.30;99.90;;;;;;5028518;28;20504;-57
2021/12/25 04:13:38;;;;;;;18.88;14.90;;;8.40;99.90;;;;;;5028416;28;20447;-56
2021/12/25 04:16:05;;;;;;;20.60;15.15;;;8.30;99.90;;;;;;5027873;28;20022;-55
2021/12/25 04:18:30;;;;;;;18.98;14.38;;;8.40;99.90;;;;;;5027832;28;20059;-56
2021/12/25 04:20:56;;;;;;;16.48;13.50;;;8.40;99.90;;;;;;5028161;28;20037;-56
2021/12/25 04:23:27;;;;;;;17.55;14.02;;;8.50;99.90;;;;;;5029238;28;20431;-56
2021/12/25 04:25:58;;;;;;;18.63;14.43;;;8.50;99.90;;;;;;5027948;28;20026;-56
2021/12/25 04:28:40;;;;;;;19.42;16.08;;;8.50;99.90;;;;;;5027877;28;20563;-56
2021/12/25 05:03:44;;;;;;;18.17;13.63;;;8.60;99.90;;;;;;5067465;28;19915;-56
2021/12/25 05:06:10;;;;;;;17.88;13.35;;;8.60;99.90;;;;;;5051508;28;20098;-57
2021/12/25 05:08:35;;;;;;;16.80;13.50;;;8.50;99.90;;;;;;5071007;28;20496;-56
2021/12/25 05:11:01;;;;;;;16.35;13.25;;;8.50;99.90;;;;;;5068235;28;20038;-54
2021/12/25 05:13:27;;;;;;;17.27;12.43;;;8.60;99.90;;;;;;5066558;28;20028;-56
2021/12/25 05:15:53;;;;;;;18.17;13.88;;;8.50;99.90;;;;;;5068766;28;20044;-54
2021/12/25 05:18:19;;;;;;;16.00;13.77;;;8.50;99.90;;;;;;5071059;28;20495;-57
2021/12/25 05:20:45;;;;;;;15.88;13.35;;;8.60;99.90;;;;;;5073031;28;20040;-56
2021/12/25 05:23:10;;;;;;;17.75;13.10;;;8.60;99.90;;;;;;5073001;28;20037;-56
2021/12/25 05:25:37;;;;;;;16.40;13.18;;;8.50;99.90;;;;;;5070483;28;20070;-57
2021/12/25 05:28:03;;;;;;;16.92;13.00;;;8.60;99.90;;;;;;5070611;28;20119;-57
2021/12/25 05:30:29;;;;;;;17.85;13.90;;;8.60;99.90;;;;;;5069879;28;20505;-56
2021/12/25 05:32:55;;;;;;;18.08;13.32;;;8.50;99.90;;;;;;5072241;28;20037;-56
2021/12/25 05:35:21;;;;;;;16.42;12.90;;;8.40;99.90;;;;;;5072394;28;20032;-55
2021/12/25 05:37:47;;;;;;;16.73;14.05;;;8.50;99.90;;;;;;5069862;28;20021;-55
2021/12/25 05:40:13;;;;;;;15.48;12.50;;;8.50;99.90;;;;;;5072050;28;20038;-57
2021/12/25 05:42:39;;;;;;;15.27;12.10;;;8.50;99.90;;;;;;5070117;28;20039;-56
2021/12/25 05:45:06;;;;;;;14.80;12.15;;;8.50;99.90;;;;;;5070179;28;20123;-55
2021/12/25 05:47:32;;;;;;;16.13;12.40;;;8.40;99.90;;;;;;5073879;28;20449;-55
2021/12/25 05:49:59;;;;;;;15.95;12.68;;;8.40;99.90;;;;;;5071663;28;20098;-56
2021/12/25 05:52:25;;;;;;;14.57;11.75;;;8.40;99.90;;;;;;5069663;28;20024;-54
2021/12/25 05:54:51;;;;;;;15.93;12.48;;;8.30;99.90;;;;;;5069719;28;20032;-56
2021/12/25 05:57:17;;;;;;;14.93;12.00;;;8.20;99.90;;;;;;5069819;28;20064;-56
2021/12/25 05:59:42;;;;;;;16.40;12.88;;;8.30;99.90;;;;;;5072736;28;20059;-54
2021/12/25 06:02:08;;;;;;;14.82;12.20;;;8.30;99.90;;;;;;5070728;28;20042;-57
2021/12/25 06:04:34;;;;;;;16.08;12.18;;;8.20;99.90;;;;;;5069213;28;20028;-54
2021/12/25 06:07:01;;;;;;;14.80;12.38;;;8.10;99.90;;;;;;5069970;28;20119;-56
2021/12/25 06:09:27;;;;;;;15.45;12.00;;;8.20;99.90;;;;;;5069863;28;20448;-57
2021/12/25 06:11:53;;;;;;;13.80;11.93;;;8.20;99.90;;;;;;5072067;28;20111;-56
2021/12/25 06:14:20;;;;;;;17.75;12.82;;;8.00;99.90;;;;;;5071011;28;20094;-56
2021/12/25 06:16:48;;;;;;;14.02;11.75;;;8.10;99.90;;;;;;5069422;28;20039;-58
2021/12/25 06:19:14;;;;;;;15.50;11.90;;;8.10;99.90;;;;;;5070819;28;20027;-56
2021/12/25 06:21:40;;;;;;;16.15;12.48;;;8.20;99.90;;;;;;5069709;28;20121;-57
2021/12/25 06:24:06;;;;;;;17.10;14.77;;;8.20;99.90;;;;;;5069957;28;20036;-55
2021/12/25 06:26:33;;;;;;;14.35;12.45;;;8.20;99.90;;;;;;5071585;28;20387;-56
2021/12/25 06:28:59;;;;;;;17.00;12.13;;;8.20;99.90;;;;;;5070233;28;20539;-56
2021/12/25 06:31:25;;;;;;;13.98;11.50;;;8.20;99.90;;;;;;5068839;28;20103;-55
2021/12/25 06:33:51;;;;;;;16.35;11.88;;;8.10;99.90;;;;;;5067259;28;20080;-53
2021/12/25 06:36:17;;;;;;;16.45;11.57;;;8.10;99.90;;;;;;5069301;28;20052;-55
2021/12/25 06:38:43;;;;;;;14.95;11.85;;;8.10;99.90;;;;;;5072321;28;20040;-55
2021/12/25 06:41:10;;;;;;;15.65;12.52;;;8.10;99.90;;;;;;5069984;28;20036;-56
2021/12/25 06:43:36;;;;;;;14.23;11.38;;;8.00;99.90;;;;;;5068552;28;20487;-54
2021/12/25 06:46:02;;;;;;;13.55;11.55;;;8.00;99.90;;;;;;5068913;28;20182;-56
2021/12/25 06:48:28;;;;;;;16.63;11.65;;;8.00;99.90;;;;;;5068896;28;20017;-56
2021/12/25 06:50:54;;;;;;;15.93;12.23;;;8.00;99.90;;;;;;5070858;28;20111;-54
2021/12/25 06:53:20;;;;;;;18.17;12.88;;;8.00;99.90;;;;;;5070761;28;20036;-57
2021/12/25 06:55:46;;;;;;;18.88;12.77;;;8.10;99.90;;;;;;5068564;28;20029;-55
2021/12/25 06:58:12;;;;;;;17.23;12.73;;;8.10;99.90;;;;;;5070029;28;20023;-56
2021/12/25 07:00:37;;;;;;;17.73;12.52;;;8.20;99.90;;;;;;5068727;28;20410;-56
2021/12/25 07:03:03;;;;;;;15.50;12.27;;;8.20;99.90;;;;;;5069472;28;20044;-56
2021/12/25 07:05:29;;;;;;;15.75;11.77;;;8.20;99.90;;;;;;5071652;28;20537;-56
2021/12/25 07:07:55;;;;;;;14.18;11.50;;;8.30;99.90;;;;;;5069766;28;20115;-54
2021/12/25 07:10:21;;;;;;;14.80;11.40;;;8.30;99.90;;;;;;5068554;28;20127;-55
2021/12/25 07:12:49;;;;;;;14.80;11.05;;;8.30;99.90;;;;;;5067867;28;20024;-56
2021/12/25 07:15:16;;;;;;;14.95;11.68;;;8.40;99.90;;;;;;5068292;28;20025;-56
2021/12/25 07:17:42;;;;;;;14.68;11.38;;;8.40;99.90;;;;;;5071552;28;20032;-53
2021/12/25 07:20:09;;;;;;;15.43;10.88;;;8.40;99.90;;;;;;5069397;28;20391;-57
2021/12/25 07:22:35;;;;;;;14.93;11.32;;;8.50;99.90;;;;;;5068392;28;20049;-55
2021/12/25 07:25:01;;;;;;;14.82;11.23;;;8.40;99.90;;;;;;5067976;28;20404;-55
2021/12/25 07:27:27;;;;;;;13.20;11.02;;;8.40;99.90;;;;;;5067708;28;20048;-56
2021/12/25 07:29:52;;;;;;;16.35;11.80;;;8.40;99.90;;;;;;5070287;28;20020;-55
2021/12/25 07:32:18;;;;;;;14.90;11.85;;;8.30;99.90;;;;;;5069560;28;20036;-56
2021/12/25 07:34:47;;;;;;;14.75;10.15;;;8.30;99.90;;;;;;5068041;28;20046;-55
2021/12/25 07:37:14;;;;;;;18.40;11.82;;;8.30;99.90;;;;;;5068932;28;20033;-55
2021/12/25 07:39:43;;;;;;;14.43;11.43;;;8.40;99.90;;;;;;5068127;28;20031;-54
2021/12/25 07:42:11;;;;;;;16.20;11.75;;;8.40;99.90;;;;;;5052027;28;20063;-56
2021/12/25 07:44:36;;;;;;;14.82;12.02;;;8.30;99.90;;;;;;5067740;28;20020;-56
2021/12/25 07:47:08;;;;;;;16.35;11.93;;;8.20;99.90;;;;;;5069114;28;20449;-52
2021/12/25 07:49:34;;;;;;;13.73;11.60;;;8.30;99.90;;;;;;5067487;28;20081;-55
2021/12/25 07:52:00;;;;;;;17.50;12.00;;;8.20;99.90;;;;;;5067144;28;20036;-54
2021/12/25 07:54:25;;;;;;;16.23;12.98;;;8.20;99.90;;;;;;5067820;28;20106;-55
2021/12/25 07:56:51;;;;;;;17.85;13.90;;;8.20;99.90;;;;;;5070349;28;20071;-55
2021/12/25 07:59:17;;;;;;;18.05;13.20;;;8.10;99.90;;;;;;5069045;28;20025;-57
2021/12/25 08:01:43;;;;;;;18.15;14.15;;;8.10;99.90;;;;;;5067500;28;20506;-56
2021/12/25 08:04:10;;;;;;;18.00;13.65;;;8.10;99.90;;;;;;5066278;28;20407;-55
2021/12/25 08:06:35;;;;;;;19.35;14.07;;;8.20;99.90;;;;;;5067404;28;20044;-56
2021/12/25 08:09:03;;;;;;;17.90;14.32;;;8.10;99.90;;;;;;5069136;28;20028;-55
2021/12/25 08:11:30;;;;;;;17.20;14.13;;;8.30;99.90;;;;;;5070488;28;20032;-55
2021/12/25 08:13:56;;;;;;;16.77;12.75;;;8.20;99.90;;;;;;5067283;28;20559;-55
2021/12/25 08:16:22;;;;;;;17.25;12.45;;;8.30;99.90;;;;;;5068749;28;20104;-57
2021/12/25 08:18:48;;;;;;;16.67;13.05;;;8.50;99.90;;;;;;5067397;28;20566;-55
2021/12/25 08:21:14;;;;;;;16.10;11.98;;;8.40;99.90;;;;;;5067260;28;20045;-56
2021/12/25 08:23:40;;;;;;;18.45;13.50;;;8.50;99.90;;;;;;5071210;28;20028;-53
2021/12/25 08:26:07;;;;;;;16.52;13.45;;;8.60;99.90;;;;;;5069132;28;20491;-53
2021/12/25 08:28:33;;;;;;;18.52;16.52;;;8.60;99.90;;;;;;5067309;28;20029;-57
2021/12/25 08:31:00;;;;;;;14.75;11.38;;;8.80;99.90;;;;;;5066771;28;20415;-56
2021/12/25 08:33:25;;;;;;;15.18;12.70;;;8.90;99.90;;;;;;5067337;28;20045;-55
2021/12/25 08:35:51;;;;;;;14.63;11.35;;;9.00;99.90;;;;;;5070044;28;20037;-55
2021/12/25 08:38:17;;;;;;;12.30;10.18;;;9.20;99.90;;;;;;5068852;28;20055;-55
2021/12/25 08:40:43;;;;;;;11.57;9.80;;;9.40;99.90;;;;;;5066878;28;20120;-56
2021/12/25 08:43:10;;;;;;;11.20;9.48;;;9.40;99.90;;;;;;5067193;28;20127;-56
2021/12/25 08:45:47;;;;;;;11.93;9.00;;;9.50;99.90;;;;;;5067185;28;20108;-55
2021/12/25 08:48:18;;;;;;;10.75;8.90;;;9.50;99.90;;;;;;5051686;28;20033;-55
2021/12/25 08:50:50;;;;;;;16.15;11.80;;;9.60;99.90;;;;;;5072351;28;20025;-56
2021/12/25 08:53:18;;;;;;;11.48;9.65;;;9.60;99.90;;;;;;5074473;28;20036;-56
2021/12/25 08:55:45;;;;;;;14.60;12.20;;;9.70;99.90;;;;;;5072507;28;20036;-57
2021/12/25 08:58:11;;;;;;;97.00;64.80;;;9.70;99.90;;;;;;5070886;28;20560;-56
2021/12/25 09:00:37;;;;;;;47.10;32.45;;;9.70;99.90;;;;;;5071139;28;20052;-56
2021/12/25 09:03:02;;;;;;;15.52;12.35;;;9.80;99.90;;;;;;5072268;28;20048;-56
2021/12/25 09:05:28;;;;;;;34.50;31.00;;;9.80;99.90;;;;;;5074979;28;20374;-56
2021/12/25 09:07:54;;;;;;;11.38;8.77;;;9.80;99.90;;;;;;5069896;28;20375;-55
2021/12/25 09:10:20;;;;;;;11.32;8.60;;;9.90;99.90;;;;;;5070265;28;20031;-55
2021/12/25 09:12:46;;;;;;;11.93;9.23;;;10.00;99.90;;;;;;5071133;28;20064;-55
2021/12/25 09:15:12;;;;;;;10.95;8.55;;;10.10;99.90;;;;;;5070546;28;20035;-56
2021/12/25 09:17:39;;;;;;;12.82;8.32;;;10.30;99.90;;;;;;5074885;28;20032;-56
2021/12/25 09:20:07;;;;;;;10.95;7.95;;;10.40;99.90;;;;;;5072244;28;20055;-56
2021/12/25 09:22:33;;;;;;;8.90;7.53;;;10.50;99.90;;;;;;5070383;28;20543;-56
2021/12/25 09:24:59;;;;;;;11.18;8.45;;;10.70;99.90;;;;;;5070673;28;20033;-55
2021/12/25 09:27:25;;;;;;;11.90;8.20;;;10.70;99.90;;;;;;5070367;28;20025;-56
2021/12/25 09:29:50;;;;;;;17.08;8.52;;;10.90;99.90;;;;;;5072741;28;20485;-56
2021/12/25 09:32:16;;;;;;;9.35;7.45;;;10.90;99.90;;;;;;5071884;28;20510;-57
2021/12/25 09:34:42;;;;;;;16.10;9.55;;;11.00;99.90;;;;;;5071600;28;20066;-54
2021/12/25 09:37:07;;;;;;;12.75;9.23;;;11.20;99.90;;;;;;5070182;28;20092;-55
2021/12/25 09:39:33;;;;;;;10.20;8.57;;;11.40;99.90;;;;;;5071241;28;20032;-56
2021/12/25 09:42:00;;;;;;;9.63;7.45;;;11.50;99.90;;;;;;5071822;28;20127;-58
2021/12/25 09:44:26;;;;;;;10.57;9.45;;;11.70;99.90;;;;;;5074163;28;20017;-56
2021/12/25 09:46:52;;;;;;;8.57;6.80;;;11.90;99.90;;;;;;5069618;28;20037;-56
2021/12/25 09:49:18;;;;;;;8.00;6.28;;;13.20;99.90;;;;;;5069478;28;20111;-56
2021/12/25 09:51:44;;;;;;;7.80;7.00;;;14.30;99.90;;;;;;5069994;28;20116;-54
2021/12/25 09:54:12;;;;;;;14.52;7.57;;;14.60;99.90;;;;;;5070434;28;20024;-57
2021/12/25 09:56:40;;;;;;;11.23;7.03;;;14.70;99.90;;;;;;5069965;28;20394;-57
2021/12/25 09:59:10;;;;;;;9.13;7.15;;;13.80;99.90;;;;;;5070288;28;20159;-55
2021/12/25 10:01:43;;;;;;;7.35;6.57;;;13.70;99.90;;;;;;5069654;28;20044;-57
2021/12/25 10:04:12;;;;;;;8.00;6.82;;;14.30;99.90;;;;;;5069896;28;20029;-56
2021/12/25 10:06:44;;;;;;;7.05;6.35;;;16.40;99.90;;;;;;5069372;28;20060;-56
2021/12/25 10:09:21;;;;;;;7.85;6.40;;;16.80;99.90;;;;;;5054434;28;20028;-56
2021/12/25 10:12:07;;;;;;;8.40;6.43;;;17.00;99.90;;;;;;5069843;28;20021;-57
2021/12/25 10:14:34;;;;;;;7.30;6.38;;;17.20;99.90;;;;;;5073636;28;20028;-56
2021/12/25 10:17:13;;;;;;;7.53;6.45;;;17.10;99.90;;;;;;5069637;28;20106;-56
2021/12/25 10:19:39;;;;;;;7.28;6.57;;;17.50;99.90;;;;;;5069388;28;20028;-57
2021/12/25 10:22:07;;;;;;;7.07;6.38;;;17.70;99.90;;;;;;5070575;28;20040;-57
2021/12/25 10:24:41;;;;;;;8.50;6.15;;;18.50;99.90;;;;;;5067957;28;20042;-57
2021/12/25 10:27:16;;;;;;;8.98;8.10;;;17.70;99.90;;;;;;5069731;28;20033;-57
2021/12/25 10:29:42;;;;;;;8.05;6.95;;;17.00;99.90;;;;;;5069312;28;20060;-54
2021/12/25 10:32:22;;;;;;;8.32;6.50;;;16.00;99.90;;;;;;5069495;28;20045;-57
2021/12/25 10:34:49;;;;;;;9.35;7.20;;;15.90;99.90;;;;;;5068907;28;20031;-58
2021/12/25 10:37:17;;;;;;;9.15;7.85;;;15.50;99.90;;;;;;5067688;28;20449;-56
2021/12/25 10:39:47;;;;;;;8.65;7.10;;;15.40;99.90;;;;;;5068834;28;20028;-58
2021/12/25 10:42:19;;;;;;;9.07;6.85;;;16.10;99.90;;;;;;5069255;28;20036;-57
2021/12/25 10:44:50;;;;;;;8.98;7.03;;;17.20;99.90;;;;;;5071878;28;20387;-58
2021/12/25 10:47:21;;;;;;;10.65;8.65;;;17.70;99.90;;;;;;5071932;28;20020;-57
2021/12/25 10:49:50;;;;;;;8.38;6.85;;;17.80;99.90;;;;;;5068815;28;20499;-57
2021/12/25 10:52:23;;;;;;;7.55;6.75;;;17.50;99.90;;;;;;5070281;28;20103;-58
2021/12/25 10:54:52;;;;;;;7.82;6.82;;;17.30;99.90;;;;;;5068543;28;20108;-58
2021/12/25 10:57:36;;;;;;;8.13;6.40;;;17.70;99.90;;;;;;5068789;28;20564;-58
2021/12/25 11:00:24;;;;;;;7.45;6.60;;;17.60;99.90;;;;;;5069939;28;20487;-57
2021/12/25 11:02:52;;;;;;;9.45;6.95;;;17.30;99.90;;;;;;5068702;28;20549;-57
2021/12/25 11:05:22;;;;;;;8.35;7.40;;;16.90;99.90;;;;;;5069783;28;20495;-58
2021/12/25 11:08:01;;;;;;;8.10;6.85;;;17.00;99.90;;;;;;5068046;28;20040;-57
2021/12/25 11:10:26;;;;;;;8.50;6.93;;;17.00;99.90;;;;;;5068263;28;20017;-57
2021/12/25 11:12:52;;;;;;;7.68;6.85;;;17.30;99.90;;;;;;5067779;28;20028;-58
2021/12/25 11:15:21;;;;;;;7.70;6.82;;;17.60;99.90;;;;;;5068120;28;20118;-57
2021/12/25 11:18:05;;;;;;;10.90;9.40;;;18.40;99.90;;;;;;5070564;28;20017;-58
2021/12/25 11:20:34;;;;;;;6.85;5.75;;;18.80;99.90;;;;;;5071585;28;20479;-57
2021/12/25 11:23:03;;;;;;;6.45;5.75;;;19.30;99.90;;;;;;5068025;28;20098;-58
2021/12/25 11:25:31;;;;;;;6.15;5.38;;;19.70;99.90;;;;;;5068300;28;20047;-58
2021/12/25 11:27:58;;;;;;;6.95;5.15;;;19.50;99.90;;;;;;5067911;28;20064;-58
2021/12/25 11:30:26;;;;;;;5.43;4.93;;;18.50;99.90;;;;;;5069824;28;20024;-58
2021/12/25 11:32:53;;;;;;;6.47;4.85;;;18.90;99.90;;;;;;5070089;28;20037;-58
2021/12/25 11:35:20;;;;;;;6.22;5.38;;;18.10;99.90;;;;;;5069408;28;20033;-58
2021/12/25 11:37:49;;;;;;;6.50;5.18;;;18.10;99.90;;;;;;5067858;28;20036;-57
2021/12/25 11:40:18;;;;;;;6.32;5.10;;;18.10;99.90;;;;;;5068884;28;20059;-58
2021/12/25 11:42:46;;;;;;;3.60;3.22;;;17.90;99.90;;;;;;5068123;28;20414;-58
2021/12/25 11:45:16;;;;;;;6.32;3.88;;;18.10;99.90;;;;;;5067857;28;20023;-58
2021/12/25 11:47:51;;;;;;;4.18;3.50;;;18.50;99.90;;;;;;5070999;28;20024;-57
2021/12/25 11:50:41;;;;;;;4.63;3.42;;;19.20;99.90;;;;;;5071180;28;20115;-58
2021/12/25 11:53:18;;;;;;;7.03;3.70;;;19.50;99.90;;;;;;5069707;28;20048;-58
2021/12/25 11:58:42;;;;;;;4.18;3.40;;;19.60;99.90;;;;;;5067439;28;20028;-58
2021/12/25 12:01:20;;;;;;;4.80;3.00;;;19.60;99.90;;;;;;5065639;28;20112;-58
2021/12/25 12:03:57;;;;;;;5.82;3.78;;;19.60;99.90;;;;;;5067120;28;20093;-57
2021/12/25 12:06:47;;;;;;;4.35;2.72;;;19.80;99.90;;;;;;5067619;28;20024;-57
2021/12/25 12:09:21;;;;;;;4.93;3.38;;;19.50;99.90;;;;;;5053942;28;20032;-58
2021/12/25 12:12:09;;;;;;;3.55;2.40;;;19.90;99.90;;;;;;5070067;28;20027;-58
2021/12/25 12:14:36;;;;;;;4.57;2.78;;;19.60;99.90;;;;;;5071263;28;20475;-58
2021/12/25 12:17:08;;;;;;;3.00;2.00;;;20.40;99.90;;;;;;5066802;28;20024;-57
2021/12/25 12:19:36;;;;;;;7.35;5.05;;;19.90;99.90;;;;;;5068964;28;20113;-58
2021/12/25 12:22:40;;;;;;;7.35;5.97;;;20.10;99.90;;;;;;5067475;28;20028;-58
2021/12/25 12:27:50;;;;;;;5.90;4.10;;;18.70;99.90;;;;;;5071587;28;20040;-58
2021/12/25 12:30:31;;;;;;;7.22;2.60;;;18.30;99.90;;;;;;5056161;28;20499;-58
2021/12/25 12:33:01;;;;;;;4.75;3.22;;;18.00;99.90;;;;;;5072469;28;20072;-58
2021/12/25 12:35:30;;;;;;;3.08;2.78;;;17.80;99.90;;;;;;5076046;28;20470;-58
2021/12/25 12:41:22;;;;;;;6.25;3.75;;;17.50;99.90;;;;;;5070937;28;20037;-57
2021/12/25 12:44:12;;;;;;;4.18;2.75;;;17.20;99.90;;;;;;5070831;28;20043;-58
2021/12/25 12:46:50;;;;;;;6.90;5.15;;;17.20;99.90;;;;;;5070680;28;20033;-58
2021/12/25 12:49:32;;;;;;;3.35;2.50;;;17.20;99.90;;;;;;5072495;28;20497;-58
2021/12/25 12:52:17;;;;;;;4.50;2.20;;;17.20;99.90;;;;;;5070877;28;20032;-58
2021/12/25 12:54:45;;;;;;;3.42;2.42;;;17.20;99.90;;;;;;5071154;28;20025;-58
2021/12/25 12:57:25;;;;;;;5.72;2.90;;;17.40;99.90;;;;;;5056789;28;20060;-58
2021/12/25 12:59:54;;;;;;;3.38;2.10;;;17.70;99.90;;;;;;5073246;28;20103;-57
2021/12/25 13:02:22;;;;;;;4.25;2.08;;;17.40;99.90;;;;;;5072760;28;20106;-58
2021/12/25 13:04:52;;;;;;;6.10;5.25;;;17.00;99.90;;;;;;5070517;28;20021;-58
2021/12/25 13:07:20;;;;;;;5.05;4.13;;;17.00;99.90;;;;;;5070881;28;20119;-58
2021/12/25 13:09:57;;;;;;;5.18;3.60;;;17.00;99.90;;;;;;5070651;28;20028;-56
2021/12/25 13:12:47;;;;;;;6.53;2.60;;;17.50;99.90;;;;;;5070443;28;20108;-58
2021/12/25 13:15:26;;;;;;;7.60;3.90;;;17.30;99.90;;;;;;5055258;28;20020;-58
2021/12/25 13:17:56;;;;;;;4.40;2.78;;;17.40;99.90;;;;;;5073191;28;20503;-56
2021/12/25 13:20:33;;;;;;;6.38;4.43;;;17.60;99.90;;;;;;5072874;28;20025;-58
2021/12/25 13:23:00;;;;;;;8.05;5.20;;;17.50;99.90;;;;;;5070296;28;20036;-58
2021/12/25 13:25:26;;;;;;;5.45;3.42;;;17.50;99.90;;;;;;5070476;28;20032;-58
2021/12/25 13:27:58;;;;;;;6.43;2.85;;;17.30;99.90;;;;;;5071771;28;20025;-58
2021/12/25 13:30:25;;;;;;;8.60;5.18;;;17.30;99.90;;;;;;5070112;28;20025;-58
2021/12/25 13:32:51;;;;;;;6.72;3.45;;;17.50;99.90;;;;;;5072753;28;20060;-58
2021/12/25 13:35:20;;;;;;;4.90;2.53;;;17.20;99.90;;;;;;5071275;28;20469;-58
2021/12/25 13:37:55;;;;;;;12.75;10.20;;;17.20;99.90;;;;;;5071832;28;20081;-58
2021/12/25 13:40:20;;;;;;;7.70;2.67;;;17.40;99.90;;;;;;5069755;28;20482;-57
2021/12/25 13:42:46;;;;;;;9.55;6.88;;;17.40;99.90;;;;;;5069964;28;20047;-58
2021/12/25 13:45:12;;;;;;;9.02;4.28;;;17.40;99.90;;;;;;5069884;28;20028;-58
2021/12/25 13:47:39;;;;;;;6.38;3.53;;;17.50;99.90;;;;;;5074637;28;20029;-58
2021/12/25 13:50:09;;;;;;;8.90;3.72;;;17.50;99.90;;;;;;5069502;28;20391;-58
2021/12/25 13:52:40;;;;;;;5.40;2.80;;;17.60;99.90;;;;;;5070218;28;20041;-58
2021/12/25 13:55:19;;;;;;;5.75;2.33;;;17.30;99.90;;;;;;5069856;28;20029;-58
2021/12/25 13:57:48;;;;;;;4.65;2.40;;;17.40;99.90;;;;;;5069472;28;20021;-62
2021/12/25 14:00:20;;;;;;;8.02;2.88;;;17.40;99.90;;;;;;5069956;28;20058;-58
2021/12/25 14:02:52;;;;;;;7.18;2.40;;;17.50;99.90;;;;;;5072687;28;20051;-58
2021/12/25 14:05:22;;;;;;;4.65;2.00;;;17.30;99.90;;;;;;5073179;28;20067;-58
2021/12/25 14:07:50;;;;;;;7.25;2.20;;;17.30;99.90;;;;;;5071066;28;20031;-56